createdAt,value
2023-04-22T00:00:33.113Z,771.00
2023-04-22T00:01:33.099Z,768.00
2023-04-22T00:02:33.165Z,784.00
2023-04-22T00:03:33.226Z,768.00
2023-04-22T00:04:33.216Z,771.00
2023-04-22T00:05:33.125Z,769.00
2023-04-22T00:06:33.090Z,772.00
2023-04-22T00:07:33.100Z,772.00
2023-04-22T00:08:33.136Z,778.00
2023-04-22T00:09:33.180Z,767.00
2023-04-22T00:10:33.120Z,757.00
2023-04-22T00:11:33.113Z,758.00
2023-04-22T00:12:33.801Z,753.00
2023-04-22T00:13:33.117Z,763.00
2023-04-22T00:14:33.140Z,758.00
2023-04-22T00:15:33.165Z,754.00
2023-04-22T00:16:33.271Z,765.00
2023-04-22T00:17:33.215Z,758.00
2023-04-22T00:18:33.210Z,755.00
2023-04-22T00:19:33.206Z,776.00
2023-04-22T00:20:33.225Z,738.00
2023-04-22T00:21:33.232Z,755.00
2023-04-22T00:22:33.233Z,762.00
2023-04-22T00:23:33.237Z,749.00
2023-04-22T00:24:33.243Z,754.00
2023-04-22T00:25:33.256Z,748.00
2023-04-22T00:26:33.256Z,750.00
2023-04-22T00:27:33.849Z,758.00
2023-04-22T00:28:33.264Z,746.00
2023-04-22T00:29:33.282Z,736.00
2023-04-22T00:30:33.279Z,739.00
2023-04-22T00:31:33.310Z,747.00
2023-04-22T00:32:33.317Z,739.00
2023-04-22T00:33:33.299Z,735.00
2023-04-22T00:34:33.305Z,742.00
2023-04-22T00:35:33.315Z,738.00
2023-04-22T00:36:33.323Z,746.00
2023-04-22T00:37:33.346Z,731.00
2023-04-22T00:38:33.324Z,729.00
2023-04-22T00:39:33.355Z,725.00
2023-04-22T00:40:33.378Z,729.00
2023-04-22T00:41:33.403Z,735.00
2023-04-22T00:42:33.426Z,742.00
2023-04-22T00:43:33.430Z,728.00
2023-04-22T00:44:33.441Z,725.00
2023-04-22T00:45:33.452Z,733.00
2023-04-22T00:46:33.458Z,737.00
2023-04-22T00:47:33.555Z,727.00
2023-04-22T00:48:33.474Z,725.00
2023-04-22T00:49:33.462Z,722.00
2023-04-22T00:50:33.508Z,730.00
2023-04-22T00:51:34.317Z,731.00
2023-04-22T00:52:33.482Z,719.00
2023-04-22T00:53:33.489Z,717.00
2023-04-22T00:54:33.503Z,721.00
2023-04-22T00:55:33.506Z,729.00
2023-04-22T00:56:33.522Z,727.00
2023-04-22T00:57:33.516Z,729.00
2023-04-22T00:58:33.531Z,720.00
2023-04-22T00:59:33.521Z,725.00
2023-04-22T01:00:33.561Z,719.00
2023-04-22T01:01:33.589Z,727.00
2023-04-22T01:02:34.477Z,713.00
2023-04-22T01:03:33.739Z,713.00
2023-04-22T01:04:33.571Z,717.00
2023-04-22T01:05:33.564Z,713.00
2023-04-22T01:06:33.562Z,704.00
2023-04-22T01:07:34.327Z,711.00
2023-04-22T01:08:33.577Z,716.00
2023-04-22T01:09:33.576Z,711.00
2023-04-22T01:10:33.836Z,713.00
2023-04-22T01:11:33.604Z,706.00
2023-04-22T01:12:33.613Z,700.00
2023-04-22T01:13:33.638Z,704.00
2023-04-22T01:14:34.327Z,710.00
2023-04-22T01:15:33.648Z,702.00
2023-04-22T01:16:33.664Z,689.00
2023-04-22T01:17:33.881Z,701.00
2023-04-22T01:18:33.666Z,710.00
2023-04-22T01:19:33.679Z,697.00
2023-04-22T01:20:33.684Z,697.00
2023-04-22T01:21:33.753Z,699.00
2023-04-22T01:22:33.713Z,724.00
2023-04-22T01:23:33.723Z,696.00
2023-04-22T01:24:33.724Z,707.00
2023-04-22T01:25:33.740Z,699.00
2023-04-22T01:26:33.756Z,707.00
2023-04-22T01:27:33.775Z,688.00
2023-04-22T01:28:33.779Z,699.00
2023-04-22T01:29:33.791Z,697.00
2023-04-22T01:30:33.814Z,711.00
2023-04-22T01:31:33.844Z,692.00
2023-04-22T01:32:33.835Z,686.00
2023-04-22T01:33:33.843Z,701.00
2023-04-22T01:34:33.851Z,685.00
2023-04-22T01:35:33.873Z,693.00
2023-04-22T01:36:33.900Z,693.00
2023-04-22T01:37:33.923Z,694.00
2023-04-22T01:38:33.914Z,687.00
2023-04-22T01:39:33.930Z,680.00
2023-04-22T01:40:33.952Z,701.00
2023-04-22T01:41:33.966Z,678.00
2023-04-22T01:42:33.985Z,686.00
2023-04-22T01:43:34.849Z,681.00
2023-04-22T01:44:34.024Z,684.00
2023-04-22T01:45:34.122Z,689.00
2023-04-22T01:46:34.070Z,679.00
2023-04-22T01:47:34.077Z,677.00
2023-04-22T01:48:34.106Z,668.00
2023-04-22T01:49:34.099Z,665.00
2023-04-22T01:50:34.116Z,687.00
2023-04-22T01:51:34.150Z,677.00
2023-04-22T01:52:34.146Z,686.00
2023-04-22T01:53:34.157Z,686.00
2023-04-22T01:54:34.178Z,678.00
2023-04-22T01:55:34.193Z,685.00
2023-04-22T01:56:34.201Z,664.00
2023-04-22T01:57:34.203Z,672.00
2023-04-22T01:58:34.225Z,666.00
2023-04-22T01:59:34.233Z,681.00
2023-04-22T02:00:34.321Z,671.00
2023-04-22T02:01:34.346Z,678.00
2023-04-22T02:02:34.409Z,680.00
2023-04-22T02:03:34.380Z,680.00
2023-04-22T02:04:34.324Z,685.00
2023-04-22T02:05:34.344Z,664.00
2023-04-22T02:06:34.342Z,669.00
2023-04-22T02:07:34.353Z,661.00
2023-04-22T02:08:34.364Z,666.00
2023-04-22T02:09:34.391Z,670.00
2023-04-22T02:10:34.399Z,670.00
2023-04-22T02:11:34.425Z,661.00
2023-04-22T02:12:34.483Z,665.00
2023-04-22T02:13:34.461Z,661.00
2023-04-22T02:14:34.471Z,664.00
2023-04-22T02:15:34.520Z,670.00
2023-04-22T02:16:34.551Z,663.00
2023-04-22T02:17:34.530Z,663.00
2023-04-22T02:18:35.360Z,662.00
2023-04-22T02:19:34.604Z,666.00
2023-04-22T02:20:34.608Z,661.00
2023-04-22T02:21:34.700Z,660.00
2023-04-22T02:22:34.705Z,658.00
2023-04-22T02:23:34.648Z,663.00
2023-04-22T02:24:34.676Z,655.00
2023-04-22T02:25:34.704Z,665.00
2023-04-22T02:26:34.720Z,655.00
2023-04-22T02:27:34.742Z,656.00
2023-04-22T02:28:34.760Z,658.00
2023-04-22T02:29:34.801Z,659.00
2023-04-22T02:30:34.829Z,661.00
2023-04-22T02:31:34.892Z,652.00
2023-04-22T02:32:35.405Z,648.00
2023-04-22T02:33:34.878Z,647.00
2023-04-22T02:34:34.907Z,655.00
2023-04-22T02:35:34.936Z,655.00
2023-04-22T02:36:34.960Z,656.00
2023-04-22T02:37:34.973Z,650.00
2023-04-22T02:38:35.015Z,653.00
2023-04-22T02:39:35.028Z,655.00
2023-04-22T02:40:35.103Z,657.00
2023-04-22T02:41:35.089Z,651.00
2023-04-22T02:42:35.109Z,655.00
2023-04-22T02:43:35.143Z,651.00
2023-04-22T02:44:35.164Z,646.00
2023-04-22T02:45:35.192Z,649.00
2023-04-22T02:46:35.318Z,654.00
2023-04-22T02:47:35.245Z,651.00
2023-04-22T02:48:35.268Z,648.00
2023-04-22T02:49:35.316Z,649.00
2023-04-22T02:50:35.359Z,650.00
2023-04-22T02:51:35.355Z,648.00
2023-04-22T02:52:35.387Z,644.00
2023-04-22T02:53:35.425Z,643.00
2023-04-22T02:54:35.446Z,647.00
2023-04-22T02:55:35.487Z,636.00
2023-04-22T02:56:35.505Z,643.00
2023-04-22T02:57:35.543Z,647.00
2023-04-22T02:58:35.572Z,643.00
2023-04-22T02:59:35.601Z,640.00
2023-04-22T03:00:35.663Z,650.00
2023-04-22T03:01:35.667Z,637.00
2023-04-22T03:02:35.886Z,643.00
2023-04-22T03:03:35.870Z,648.00
2023-04-22T03:04:35.786Z,640.00
2023-04-22T03:05:35.794Z,637.00
2023-04-22T03:06:35.825Z,643.00
2023-04-22T03:07:35.852Z,634.00
2023-04-22T03:08:35.874Z,638.00
2023-04-22T03:09:35.897Z,641.00
2023-04-22T03:10:35.939Z,642.00
2023-04-22T03:11:35.952Z,639.00
2023-04-22T03:12:35.986Z,638.00
2023-04-22T03:13:36.028Z,639.00
2023-04-22T03:14:36.043Z,635.00
2023-04-22T03:15:36.092Z,633.00
2023-04-22T03:16:36.123Z,636.00
2023-04-22T03:17:36.154Z,633.00
2023-04-22T03:18:36.143Z,633.00
2023-04-22T03:19:36.167Z,632.00
2023-04-22T03:20:36.220Z,630.00
2023-04-22T03:21:36.241Z,633.00
2023-04-22T03:22:36.282Z,630.00
2023-04-22T03:23:36.307Z,636.00
2023-04-22T03:24:36.334Z,624.00
2023-04-22T03:25:36.372Z,629.00
2023-04-22T03:26:36.406Z,632.00
2023-04-22T03:27:36.434Z,631.00
2023-04-22T03:28:36.478Z,630.00
2023-04-22T03:29:36.599Z,624.00
2023-04-22T03:30:36.605Z,626.00
2023-04-22T03:31:36.616Z,631.00
2023-04-22T03:32:36.704Z,628.00
2023-04-22T03:33:36.633Z,623.00
2023-04-22T03:34:37.518Z,625.00
2023-04-22T03:35:36.701Z,626.00
2023-04-22T03:36:36.726Z,623.00
2023-04-22T03:37:36.769Z,626.00
2023-04-22T03:38:36.784Z,626.00
2023-04-22T03:39:37.112Z,617.00
2023-04-22T03:40:36.851Z,620.00
2023-04-22T03:41:36.953Z,625.00
2023-04-22T03:42:36.936Z,625.00
2023-04-22T03:43:36.949Z,622.00
2023-04-22T03:44:37.887Z,619.00
2023-04-22T03:45:37.096Z,620.00
2023-04-22T03:46:37.115Z,623.00
2023-04-22T03:47:37.106Z,626.00
2023-04-22T03:48:37.120Z,622.00
2023-04-22T03:49:37.425Z,623.00
2023-04-22T03:50:37.179Z,627.00
2023-04-22T03:51:37.896Z,624.00
2023-04-22T03:52:37.249Z,622.00
2023-04-22T03:53:37.280Z,611.00
2023-04-22T03:54:37.317Z,620.00
2023-04-22T03:55:37.375Z,623.00
2023-04-22T03:56:37.383Z,617.00
2023-04-22T03:57:37.406Z,612.00
2023-04-22T03:58:37.508Z,614.00
2023-04-22T03:59:37.642Z,614.00
2023-04-22T04:00:37.506Z,612.00
2023-04-22T04:01:37.533Z,611.00
2023-04-22T04:02:37.739Z,607.00
2023-04-22T04:03:37.754Z,613.00
2023-04-22T04:04:38.176Z,607.00
2023-04-22T04:05:37.722Z,613.00
2023-04-22T04:06:37.701Z,609.00
2023-04-22T04:07:37.711Z,606.00
2023-04-22T04:08:37.753Z,609.00
2023-04-22T04:09:38.027Z,608.00
2023-04-22T04:10:37.815Z,603.00
2023-04-22T04:11:37.862Z,608.00
2023-04-22T04:12:37.896Z,607.00
2023-04-22T04:13:37.925Z,604.00
2023-04-22T04:14:37.959Z,606.00
2023-04-22T04:15:38.033Z,600.00
2023-04-22T04:16:38.086Z,598.00
2023-04-22T04:17:38.147Z,602.00
2023-04-22T04:18:38.113Z,603.00
2023-04-22T04:19:38.533Z,603.00
2023-04-22T04:20:38.197Z,594.00
2023-04-22T04:21:38.231Z,598.00
2023-04-22T04:22:38.338Z,596.00
2023-04-22T04:23:38.326Z,599.00
2023-04-22T04:24:38.377Z,596.00
2023-04-22T04:25:38.460Z,589.00
2023-04-22T04:26:38.456Z,593.00
2023-04-22T04:27:38.539Z,591.00
2023-04-22T04:28:38.530Z,598.00
2023-04-22T04:29:38.850Z,590.00
2023-04-22T04:30:38.618Z,588.00
2023-04-22T04:31:38.705Z,585.00
2023-04-22T04:32:38.865Z,587.00
2023-04-22T04:33:38.737Z,595.00
2023-04-22T04:34:38.795Z,585.00
2023-04-22T04:35:38.867Z,585.00
2023-04-22T04:36:38.859Z,585.00
2023-04-22T04:37:38.894Z,582.00
2023-04-22T04:38:38.937Z,576.00
2023-04-22T04:39:39.254Z,575.00
2023-04-22T04:40:39.042Z,583.00
2023-04-22T04:41:39.077Z,580.00
2023-04-22T04:42:39.130Z,576.00
2023-04-22T04:43:39.169Z,574.00
2023-04-22T04:44:39.205Z,579.00
2023-04-22T04:45:39.267Z,573.00
2023-04-22T04:46:39.353Z,562.00
2023-04-22T04:47:39.371Z,565.00
2023-04-22T04:48:39.386Z,566.00
2023-04-22T04:49:39.710Z,563.00
2023-04-22T04:50:39.453Z,564.00
2023-04-22T04:51:39.498Z,564.00
2023-04-22T04:52:39.534Z,567.00
2023-04-22T04:53:39.568Z,561.00
2023-04-22T04:54:39.606Z,556.00
2023-04-22T04:55:39.652Z,564.00
2023-04-22T04:56:39.695Z,555.00
2023-04-22T04:57:40.423Z,559.00
2023-04-22T04:58:39.767Z,561.00
2023-04-22T04:59:40.220Z,555.00
2023-04-22T05:00:39.857Z,554.00
2023-04-22T05:01:39.978Z,553.00
2023-04-22T05:02:40.052Z,553.00
2023-04-22T05:03:40.252Z,554.00
2023-04-22T05:04:40.287Z,541.00
2023-04-22T05:05:40.094Z,553.00
2023-04-22T05:06:40.126Z,549.00
2023-04-22T05:07:40.176Z,546.00
2023-04-22T05:08:40.222Z,551.00
2023-04-22T05:09:40.487Z,550.00
2023-04-22T05:10:40.313Z,541.00
2023-04-22T05:11:40.355Z,536.00
2023-04-22T05:12:40.396Z,543.00
2023-04-22T05:13:40.448Z,542.00
2023-04-22T05:14:40.501Z,542.00
2023-04-22T05:15:40.553Z,545.00
2023-04-22T05:16:40.654Z,535.00
2023-04-22T05:17:40.714Z,543.00
2023-04-22T05:18:40.721Z,539.00
2023-04-22T05:19:40.985Z,538.00
2023-04-22T05:20:41.433Z,536.00
2023-04-22T05:21:40.847Z,538.00
2023-04-22T05:22:40.880Z,523.00
2023-04-22T05:23:40.933Z,537.00
2023-04-22T05:24:40.983Z,528.00
2023-04-22T05:25:41.026Z,532.00
2023-04-22T05:26:41.068Z,529.00
2023-04-22T05:27:41.097Z,531.00
2023-04-22T05:28:41.150Z,530.00
2023-04-22T05:29:41.420Z,528.00
2023-04-22T05:30:41.232Z,525.00
2023-04-22T05:31:41.337Z,527.00
2023-04-22T05:32:41.383Z,523.00
2023-04-22T05:33:41.362Z,529.00
2023-04-22T05:34:41.400Z,523.00
2023-04-22T05:35:41.436Z,525.00
2023-04-22T05:36:41.474Z,529.00
2023-04-22T05:37:41.518Z,517.00
2023-04-22T05:38:41.562Z,514.00
2023-04-22T05:39:41.740Z,519.00
2023-04-22T05:40:41.651Z,516.00
2023-04-22T05:41:41.693Z,522.00
2023-04-22T05:42:41.736Z,519.00
2023-04-22T05:43:41.784Z,516.00
2023-04-22T05:44:41.814Z,518.00
2023-04-22T05:45:41.958Z,514.00
2023-04-22T05:46:41.930Z,511.00
2023-04-22T05:47:42.015Z,513.00
2023-04-22T05:48:42.013Z,514.00
2023-04-22T05:49:42.290Z,516.00
2023-04-22T05:50:42.113Z,511.00
2023-04-22T05:51:42.448Z,512.00
2023-04-22T05:52:42.216Z,510.00
2023-04-22T05:53:42.262Z,511.00
2023-04-22T05:54:42.320Z,508.00
2023-04-22T05:55:42.385Z,503.00
2023-04-22T05:56:42.422Z,507.00
2023-04-22T05:57:42.476Z,504.00
2023-04-22T05:58:42.520Z,505.00
2023-04-22T05:59:42.983Z,505.00
2023-04-22T06:00:42.955Z,507.00
2023-04-22T06:01:42.661Z,510.00
2023-04-22T06:02:42.836Z,505.00
2023-04-22T06:03:43.043Z,506.00
2023-04-22T06:04:43.195Z,505.00
2023-04-22T06:05:42.868Z,504.00
2023-04-22T06:06:42.897Z,504.00
2023-04-22T06:07:42.941Z,502.00
2023-04-22T06:08:43.028Z,504.00
2023-04-22T06:09:43.251Z,503.00
2023-04-22T06:10:43.099Z,506.00
2023-04-22T06:11:43.154Z,511.00
2023-04-22T06:12:43.183Z,507.00
2023-04-22T06:13:43.233Z,502.00
2023-04-22T06:14:43.272Z,506.00
2023-04-22T06:15:43.514Z,504.00
2023-04-22T06:16:43.949Z,506.00
2023-04-22T06:17:43.430Z,501.00
2023-04-22T06:18:43.530Z,509.00
2023-04-22T06:19:43.506Z,501.00
2023-04-22T06:20:44.448Z,504.00
2023-04-22T06:21:43.600Z,500.00
2023-04-22T06:22:43.641Z,504.00
2023-04-22T06:23:43.694Z,499.00
2023-04-22T06:24:43.908Z,502.00
2023-04-22T06:25:43.803Z,508.00
2023-04-22T06:26:43.841Z,504.00
2023-04-22T06:27:43.889Z,507.00
2023-04-22T06:28:44.457Z,511.00
2023-04-22T06:29:43.984Z,501.00
2023-04-22T06:30:44.025Z,502.00
2023-04-22T06:31:44.194Z,505.00
2023-04-22T06:32:44.221Z,506.00
2023-04-22T06:33:44.146Z,504.00
2023-04-22T06:34:44.195Z,507.00
2023-04-22T06:35:44.244Z,504.00
2023-04-22T06:36:44.265Z,508.00
2023-04-22T06:37:44.316Z,506.00
2023-04-22T06:38:44.351Z,510.00
2023-04-22T06:39:44.387Z,505.00
2023-04-22T06:40:44.525Z,504.00
2023-04-22T06:41:44.482Z,505.00
2023-04-22T06:42:44.519Z,503.00
2023-04-22T06:43:44.562Z,504.00
2023-04-22T06:44:44.600Z,501.00
2023-04-22T06:45:44.694Z,505.00
2023-04-22T06:46:44.727Z,508.00
2023-04-22T06:47:44.729Z,511.00
2023-04-22T06:48:44.772Z,504.00
2023-04-22T06:49:44.827Z,507.00
2023-04-22T06:50:44.868Z,504.00
2023-04-22T06:51:44.899Z,507.00
2023-04-22T06:52:44.967Z,502.00
2023-04-22T06:53:44.991Z,508.00
2023-04-22T06:54:45.039Z,500.00
2023-04-22T06:55:45.167Z,509.00
2023-04-22T06:56:45.119Z,504.00
2023-04-22T06:57:45.164Z,504.00
2023-04-22T06:58:45.206Z,501.00
2023-04-22T06:59:46.858Z,502.00
2023-04-22T07:00:45.291Z,506.00
2023-04-22T07:01:45.516Z,508.00
2023-04-22T07:02:45.453Z,512.00
2023-04-22T07:03:45.501Z,508.00
2023-04-22T07:04:45.490Z,502.00
2023-04-22T07:05:45.510Z,506.00
2023-04-22T07:06:45.551Z,506.00
2023-04-22T07:07:45.594Z,504.00
2023-04-22T07:08:45.644Z,507.00
2023-04-22T07:09:45.752Z,506.00
2023-04-22T07:10:45.727Z,508.00
2023-04-22T07:11:45.753Z,506.00
2023-04-22T07:12:45.855Z,500.00
2023-04-22T07:13:45.844Z,509.00
2023-04-22T07:14:45.894Z,506.00
2023-04-22T07:15:45.978Z,506.00
2023-04-22T07:16:46.075Z,506.00
2023-04-22T07:17:46.030Z,503.00
2023-04-22T07:18:46.041Z,509.00
2023-04-22T07:19:46.080Z,506.00
2023-04-22T07:20:46.488Z,514.00
2023-04-22T07:21:46.187Z,509.00
2023-04-22T07:22:46.207Z,510.00
2023-04-22T07:23:46.241Z,508.00
2023-04-22T07:24:46.288Z,508.00
2023-04-22T07:25:46.479Z,505.00
2023-04-22T07:26:46.365Z,506.00
2023-04-22T07:27:46.408Z,505.00
2023-04-22T07:28:46.422Z,501.00
2023-04-22T07:29:46.456Z,503.00
2023-04-22T07:30:46.504Z,507.00
2023-04-22T07:31:46.678Z,505.00
2023-04-22T07:33:46.608Z,501.00
2023-04-22T07:34:46.651Z,501.00
2023-04-22T07:35:46.678Z,506.00
2023-04-22T07:36:46.795Z,503.00
2023-04-22T07:37:46.751Z,501.00
2023-04-22T07:38:46.772Z,502.00
2023-04-22T07:39:46.813Z,501.00
2023-04-22T07:40:46.852Z,504.00
2023-04-22T07:41:46.884Z,505.00
2023-04-22T07:42:46.937Z,507.00
2023-04-22T07:43:46.943Z,504.00
2023-04-22T07:44:46.973Z,501.00
2023-04-22T07:45:47.035Z,502.00
2023-04-22T07:46:47.050Z,502.00
2023-04-22T07:47:48.017Z,510.00
2023-04-22T07:48:47.093Z,504.00
2023-04-22T07:49:47.132Z,504.00
2023-04-22T07:50:47.162Z,503.00
2023-04-22T07:51:47.202Z,506.00
2023-04-22T07:52:47.227Z,510.00
2023-04-22T07:53:47.258Z,509.00
2023-04-22T07:54:47.365Z,504.00
2023-04-22T07:55:47.320Z,500.00
2023-04-22T07:56:47.341Z,508.00
2023-04-22T07:57:47.369Z,509.00
2023-04-22T07:58:47.418Z,502.00
2023-04-22T07:59:47.434Z,503.00
2023-04-22T08:00:47.515Z,507.00
2023-04-22T08:01:47.494Z,505.00
2023-04-22T08:02:47.618Z,507.00
2023-04-22T08:03:47.729Z,503.00
2023-04-22T08:04:47.705Z,506.00
2023-04-22T08:05:47.609Z,505.00
2023-04-22T08:06:47.637Z,500.00
2023-04-22T08:07:47.662Z,512.00
2023-04-22T08:08:47.688Z,512.00
2023-04-22T08:09:47.712Z,511.00
2023-04-22T08:10:47.737Z,509.00
2023-04-22T08:11:47.858Z,508.00
2023-04-22T08:12:47.803Z,505.00
2023-04-22T08:13:47.833Z,506.00
2023-04-22T08:14:47.869Z,507.00
2023-04-22T08:15:47.928Z,508.00
2023-04-22T08:16:47.932Z,506.00
2023-04-22T08:17:48.026Z,508.00
2023-04-22T08:18:47.985Z,505.00
2023-04-22T08:19:48.010Z,509.00
2023-04-22T08:20:48.051Z,510.00
2023-04-22T08:21:48.076Z,506.00
2023-04-22T08:22:48.093Z,510.00
2023-04-22T08:23:48.130Z,512.00
2023-04-22T08:24:49.039Z,511.00
2023-04-22T08:25:48.165Z,503.00
2023-04-22T08:26:48.195Z,504.00
2023-04-22T08:27:48.208Z,510.00
2023-04-22T08:28:48.239Z,510.00
2023-04-22T08:29:48.321Z,505.00
2023-04-22T08:30:48.314Z,510.00
2023-04-22T08:31:48.488Z,513.00
2023-04-22T08:32:48.361Z,510.00
2023-04-22T08:33:48.343Z,508.00
2023-04-22T08:34:51.638Z,510.00
2023-04-22T08:35:48.417Z,511.00
2023-04-22T08:36:48.520Z,512.00
2023-04-22T08:37:49.018Z,515.00
2023-04-22T08:38:50.043Z,511.00
2023-04-22T08:39:48.344Z,514.00
2023-04-22T08:40:48.340Z,516.00
2023-04-22T08:41:48.342Z,512.00
2023-04-22T08:42:48.328Z,510.00
2023-04-22T08:43:48.343Z,506.00
2023-04-22T08:44:48.326Z,509.00
2023-04-22T08:45:48.337Z,514.00
2023-04-22T08:46:48.371Z,508.00
2023-04-22T08:47:48.369Z,513.00
2023-04-22T08:48:48.302Z,512.00
2023-04-22T08:49:48.314Z,510.00
2023-04-22T08:50:48.303Z,512.00
2023-04-22T08:51:48.293Z,514.00
2023-04-22T08:52:48.296Z,509.00
2023-04-22T08:53:48.311Z,511.00
2023-04-22T08:54:48.282Z,518.00
2023-04-22T08:55:48.271Z,514.00
2023-04-22T08:56:48.262Z,507.00
2023-04-22T08:57:48.253Z,512.00
2023-04-22T08:58:48.257Z,508.00
2023-04-22T08:59:48.238Z,512.00
2023-04-22T09:00:48.316Z,513.00
2023-04-22T09:01:48.238Z,514.00
2023-04-22T09:02:48.372Z,510.00
2023-04-22T09:03:48.331Z,513.00
2023-04-22T09:04:48.246Z,512.00
2023-04-22T09:05:48.318Z,516.00
2023-04-22T09:06:48.282Z,513.00
2023-04-22T09:07:48.285Z,515.00
2023-04-22T09:08:48.309Z,512.00
2023-04-22T09:09:48.377Z,512.00
2023-04-22T09:10:48.354Z,517.00
2023-04-22T09:11:48.372Z,515.00
2023-04-22T09:12:48.380Z,517.00
2023-04-22T09:13:48.466Z,512.00
2023-04-22T09:14:48.427Z,518.00
2023-04-22T09:15:48.468Z,510.00
2023-04-22T09:16:48.556Z,511.00
2023-04-22T09:17:48.509Z,515.00
2023-04-22T09:18:49.531Z,516.00
2023-04-22T09:19:48.555Z,512.00
2023-04-22T09:20:48.598Z,517.00
2023-04-22T09:21:50.370Z,516.00
2023-04-22T09:22:48.608Z,519.00
2023-04-22T09:23:48.601Z,517.00
2023-04-22T09:24:48.583Z,521.00
2023-04-22T09:25:48.572Z,512.00
2023-04-22T09:26:48.585Z,516.00
2023-04-22T09:27:49.611Z,517.00
2023-04-22T09:28:48.569Z,523.00
2023-04-22T09:29:48.569Z,519.00
2023-04-22T09:30:48.573Z,518.00
2023-04-22T09:31:48.678Z,520.00
2023-04-22T09:32:48.605Z,522.00
2023-04-22T09:33:50.189Z,521.00
2023-04-22T09:34:48.539Z,516.00
2023-04-22T09:35:48.546Z,523.00
2023-04-22T09:36:48.542Z,519.00
2023-04-22T09:37:49.695Z,521.00
2023-04-22T09:38:48.510Z,526.00
2023-04-22T09:39:49.704Z,521.00
2023-04-22T09:40:48.498Z,520.00
2023-04-22T09:41:48.485Z,522.00
2023-04-22T09:42:48.479Z,516.00
2023-04-22T09:43:48.466Z,518.00
2023-04-22T09:44:48.461Z,522.00
2023-04-22T09:45:48.477Z,524.00
2023-04-22T09:46:48.460Z,519.00
2023-04-22T09:47:48.479Z,525.00
2023-04-22T09:48:48.442Z,521.00
2023-04-22T09:49:48.427Z,524.00
2023-04-22T09:50:48.438Z,519.00
2023-04-22T09:51:49.936Z,520.00
2023-04-22T09:52:48.420Z,523.00
2023-04-22T09:53:48.416Z,521.00
2023-04-22T09:54:48.412Z,524.00
2023-04-22T09:55:48.424Z,522.00
2023-04-22T09:56:48.502Z,524.00
2023-04-22T09:57:48.405Z,517.00
2023-04-22T09:58:48.469Z,520.00
2023-04-22T09:59:48.398Z,518.00
2023-04-22T10:00:48.412Z,524.00
2023-04-22T10:01:48.403Z,528.00
2023-04-22T10:02:48.470Z,524.00
2023-04-22T10:03:48.395Z,520.00
2023-04-22T10:04:48.378Z,527.00
2023-04-22T10:05:48.404Z,524.00
2023-04-22T10:06:48.560Z,523.00
2023-04-22T10:07:48.481Z,521.00
2023-04-22T10:08:48.442Z,519.00
2023-04-22T10:09:48.463Z,524.00
2023-04-22T10:10:48.485Z,527.00
2023-04-22T10:11:48.483Z,520.00
2023-04-22T10:12:48.494Z,524.00
2023-04-22T10:13:48.505Z,523.00
2023-04-22T10:14:48.523Z,522.00
2023-04-22T10:15:48.545Z,523.00
2023-04-22T10:16:48.624Z,521.00
2023-04-22T10:17:48.631Z,516.00
2023-04-22T10:18:48.589Z,523.00
2023-04-22T10:19:48.571Z,516.00
2023-04-22T10:20:48.689Z,521.00
2023-04-22T10:21:48.602Z,523.00
2023-04-22T10:22:48.609Z,520.00
2023-04-22T10:23:48.625Z,518.00
2023-04-22T10:24:48.613Z,518.00
2023-04-22T10:25:48.617Z,521.00
2023-04-22T10:26:48.637Z,521.00
2023-04-22T10:27:48.632Z,517.00
2023-04-22T10:28:48.648Z,516.00
2023-04-22T10:29:48.651Z,518.00
2023-04-22T10:30:48.713Z,514.00
2023-04-22T10:31:48.667Z,518.00
2023-04-22T10:32:48.751Z,516.00
2023-04-22T10:33:48.672Z,521.00
2023-04-22T10:34:48.668Z,516.00
2023-04-22T10:35:48.683Z,520.00
2023-04-22T10:36:48.678Z,517.00
2023-04-22T10:37:48.691Z,514.00
2023-04-22T10:38:48.689Z,517.00
2023-04-22T10:39:48.679Z,515.00
2023-04-22T10:40:48.693Z,513.00
2023-04-22T10:41:48.784Z,522.00
2023-04-22T10:42:48.694Z,521.00
2023-04-22T10:43:48.704Z,518.00
2023-04-22T10:44:48.709Z,516.00
2023-04-22T10:45:48.731Z,520.00
2023-04-22T10:46:48.712Z,522.00
2023-04-22T10:47:48.746Z,523.00
2023-04-22T10:48:48.784Z,516.00
2023-04-22T10:49:48.736Z,509.00
2023-04-22T10:50:48.726Z,518.00
2023-04-22T10:51:48.739Z,518.00
2023-04-22T10:52:48.725Z,521.00
2023-04-22T10:53:48.799Z,520.00
2023-04-22T10:54:48.710Z,520.00
2023-04-22T10:55:48.703Z,514.00
2023-04-22T10:56:57.390Z,520.00
2023-04-22T10:57:49.694Z,521.00
2023-04-22T10:58:49.612Z,521.00
2023-04-22T10:59:50.185Z,520.00
2023-04-22T11:00:53.832Z,519.00
2023-04-22T11:01:49.680Z,521.00
2023-04-22T11:02:48.758Z,522.00
2023-04-22T11:03:49.679Z,520.00
2023-04-22T11:04:48.646Z,521.00
2023-04-22T11:05:48.616Z,523.00
2023-04-22T11:06:48.606Z,522.00
2023-04-22T11:07:48.603Z,523.00
2023-04-22T11:08:48.596Z,524.00
2023-04-22T11:09:48.566Z,520.00
2023-04-22T11:10:48.561Z,521.00
2023-04-22T11:11:48.607Z,521.00
2023-04-22T11:12:48.665Z,520.00
2023-04-22T11:13:48.726Z,516.00
2023-04-22T11:14:48.860Z,517.00
2023-04-22T11:15:48.942Z,517.00
2023-04-22T11:16:49.033Z,513.00
2023-04-22T11:17:49.059Z,516.00
2023-04-22T11:18:49.030Z,517.00
2023-04-22T11:19:49.092Z,517.00
2023-04-22T11:20:49.159Z,516.00
2023-04-22T11:21:51.156Z,519.00
2023-04-22T11:22:50.073Z,520.00
2023-04-22T11:23:49.304Z,516.00
2023-04-22T11:24:49.370Z,519.00
2023-04-22T11:25:49.419Z,519.00
2023-04-22T11:26:49.479Z,519.00
2023-04-22T11:27:49.536Z,519.00
2023-04-22T11:28:49.589Z,514.00
2023-04-22T11:29:49.648Z,513.00
2023-04-22T11:30:49.692Z,519.00
2023-04-22T11:31:49.818Z,518.00
2023-04-22T11:32:49.908Z,517.00
2023-04-22T11:33:50.403Z,526.00
2023-04-22T11:34:50.827Z,526.00
2023-04-22T11:35:49.839Z,526.00
2023-04-22T11:36:49.841Z,528.00
2023-04-22T11:37:49.785Z,527.00
2023-04-22T11:38:49.774Z,516.00
2023-04-22T11:40:08.046Z,521.00
2023-04-22T11:40:50.751Z,521.00
2023-04-22T11:41:49.745Z,521.00
2023-04-22T11:42:49.744Z,520.00
2023-04-22T11:43:49.717Z,520.00
2023-04-22T11:44:49.702Z,517.00
2023-04-22T11:45:49.712Z,517.00
2023-04-22T11:46:49.679Z,525.00
2023-04-22T11:47:49.699Z,515.00
2023-04-22T11:48:49.644Z,526.00
2023-04-22T11:49:50.587Z,518.00
2023-04-22T11:50:49.612Z,515.00
2023-04-22T11:51:49.619Z,524.00
2023-04-22T11:52:49.646Z,519.00
2023-04-22T11:53:49.673Z,519.00
2023-04-22T11:54:49.700Z,520.00
2023-04-22T11:55:49.737Z,529.00
2023-04-22T11:56:49.762Z,521.00
2023-04-22T11:57:49.782Z,527.00
2023-04-22T11:58:49.806Z,514.00
2023-04-22T11:59:49.847Z,521.00
2023-04-22T12:00:49.846Z,524.00
2023-04-22T12:01:50.837Z,524.00
2023-04-22T12:02:49.855Z,524.00
2023-04-22T12:03:49.878Z,516.00
2023-04-22T12:04:49.870Z,525.00
2023-04-22T12:05:49.814Z,521.00
2023-04-22T12:06:49.743Z,520.00
2023-04-22T12:07:49.727Z,518.00
2023-04-22T12:08:49.694Z,524.00
2023-04-22T12:09:49.684Z,527.00
2023-04-22T12:10:49.669Z,522.00
2023-04-22T12:11:49.654Z,522.00
2023-04-22T12:12:49.634Z,524.00
2023-04-22T12:13:49.701Z,527.00
2023-04-22T12:14:49.600Z,520.00
2023-04-22T12:15:49.570Z,517.00
2023-04-22T12:16:49.582Z,520.00
2023-04-22T12:17:49.547Z,520.00
2023-04-22T12:18:49.594Z,520.00
2023-04-22T12:19:49.490Z,515.00
2023-04-22T12:20:49.465Z,517.00
2023-04-22T12:21:49.451Z,520.00
2023-04-22T12:22:49.416Z,513.00
2023-04-22T12:23:49.401Z,514.00
2023-04-22T12:24:49.371Z,522.00
2023-04-22T12:25:49.364Z,518.00
2023-04-22T12:26:49.348Z,519.00
2023-04-22T12:27:49.338Z,518.00
2023-04-22T12:28:49.338Z,515.00
2023-04-22T12:29:49.366Z,512.00